createdAt,value
2018-12-01T00:00:08.183Z,20.17
2018-12-01T00:02:39.401Z,20.43
2018-12-01T00:05:12.693Z,20.35
2018-12-01T00:07:45.468Z,20.20
2018-12-01T00:10:20.811Z,20.13
2018-12-01T00:12:52.574Z,22.40
2018-12-01T00:15:26.722Z,21.73
2018-12-01T00:17:59.530Z,21.27
2018-12-01T00:20:34.192Z,21.47
2018-12-01T00:23:04.344Z,23.30
2018-12-01T00:25:34.859Z,22.53
2018-12-01T00:28:05.486Z,20.90
2018-12-01T00:30:35.899Z,23.80
2018-12-01T00:33:06.746Z,22.58
2018-12-01T00:35:37.230Z,23.60
2018-12-01T00:38:07.910Z,23.65
2018-12-01T00:40:38.382Z,23.80
2018-12-01T00:43:08.652Z,22.97
2018-12-01T00:45:45.380Z,22.13
2018-12-01T00:48:16.671Z,22.90
2018-12-01T00:50:47.611Z,24.50
2018-12-01T00:53:17.738Z,22.10
2018-12-01T00:55:48.569Z,21.90
2018-12-01T00:58:19.699Z,22.13
2018-12-01T01:00:49.793Z,22.35
2018-12-01T01:03:20.877Z,22.48
2018-12-01T01:05:53.833Z,23.47
2018-12-01T01:08:24.628Z,23.43
2018-12-01T01:10:58.093Z,29.85
2018-12-01T01:13:30.152Z,27.85
2018-12-01T01:16:05.288Z,24.00
2018-12-01T01:18:39.250Z,23.53
2018-12-01T01:21:13.038Z,23.90
2018-12-01T01:23:45.296Z,22.70
2018-12-01T01:26:18.912Z,23.50
2018-12-01T01:28:50.532Z,22.30
2018-12-01T01:31:22.415Z,22.63
2018-12-01T01:33:52.675Z,23.27
2018-12-01T01:36:27.772Z,24.97
2018-12-01T01:38:57.877Z,23.77
2018-12-01T01:41:30.857Z,22.17
2018-12-01T01:44:07.536Z,24.20
2018-12-01T01:46:37.703Z,23.63
2018-12-01T01:49:08.945Z,22.53
2018-12-01T01:51:39.414Z,23.83
2018-12-01T01:54:09.975Z,24.00
2018-12-01T01:56:40.375Z,22.85
2018-12-01T01:59:10.821Z,25.10
2018-12-01T02:01:44.729Z,25.45
2018-12-01T02:04:14.879Z,25.17
2018-12-01T02:06:48.772Z,24.20
2018-12-01T02:09:19.904Z,23.77
2018-12-01T02:11:50.040Z,24.50
2018-12-01T02:14:21.072Z,25.20
2018-12-01T02:16:51.921Z,25.53
2018-12-01T02:19:24.999Z,23.80
2018-12-01T02:21:56.026Z,24.53
2018-12-01T02:24:29.863Z,25.93
2018-12-01T02:26:59.986Z,25.67
2018-12-01T02:29:30.062Z,23.80
2018-12-01T02:32:01.515Z,25.90
2018-12-01T02:34:31.254Z,26.80
2018-12-01T02:37:02.091Z,25.87
2018-12-01T02:39:33.015Z,25.93
2018-12-01T02:42:03.365Z,25.30
2018-12-01T02:44:59.812Z,23.30
2018-12-01T02:47:30.985Z,26.37
2018-12-01T02:50:02.383Z,24.47
2018-12-01T02:52:32.472Z,25.10
2018-12-01T02:55:03.204Z,25.10
2018-12-01T02:57:33.303Z,23.67
2018-12-01T03:00:05.816Z,26.05
2018-12-01T03:02:37.781Z,24.85
2018-12-01T03:05:09.720Z,26.27
2018-12-01T03:07:42.236Z,27.45
2018-12-01T03:10:13.712Z,26.50
2018-12-01T03:12:46.284Z,25.87
2018-12-01T03:15:18.645Z,26.42
2018-12-01T03:17:51.503Z,25.53
2018-12-01T03:20:21.662Z,24.63
2018-12-01T03:22:52.229Z,26.87
2018-12-01T03:25:25.270Z,25.00
2018-12-01T03:27:56.334Z,26.37
2018-12-01T03:30:28.362Z,26.30
2018-12-01T03:32:59.286Z,27.82
2018-12-01T03:35:30.270Z,26.53
2018-12-01T03:38:02.339Z,27.00
2018-12-01T03:40:51.853Z,25.40
2018-12-01T03:43:21.974Z,25.25
2018-12-01T03:45:55.080Z,26.20
2018-12-01T03:48:25.438Z,27.90
2018-12-01T03:50:58.456Z,27.00
2018-12-01T03:53:29.457Z,26.52
2018-12-01T03:55:59.649Z,27.30
2018-12-01T03:58:36.324Z,27.53
2018-12-01T04:01:07.496Z,26.48
2018-12-01T04:03:46.179Z,26.20
2018-12-01T04:06:16.505Z,25.70
2018-12-01T04:08:47.571Z,28.13
2018-12-01T04:11:18.388Z,28.42
2018-12-01T04:13:51.484Z,27.30
2018-12-01T04:16:21.601Z,28.43
2018-12-01T04:18:52.570Z,30.50
2018-12-01T04:21:24.491Z,29.20
2018-12-01T04:24:03.420Z,28.65
2018-12-01T04:26:34.534Z,31.23
2018-12-01T04:29:08.009Z,30.10
2018-12-01T04:31:38.635Z,32.23
2018-12-01T04:34:11.634Z,31.70
2018-12-01T04:36:42.475Z,31.80
2018-12-01T04:39:12.657Z,31.35
2018-12-01T04:41:43.606Z,31.20
2018-12-01T04:44:14.547Z,33.00
2018-12-01T04:46:45.719Z,32.97
2018-12-01T04:49:16.730Z,31.87
2018-12-01T04:51:49.644Z,31.33
2018-12-01T04:54:20.669Z,32.63
2018-12-01T04:56:57.741Z,32.17
2018-12-01T04:59:30.778Z,32.40
2018-12-01T05:02:03.816Z,31.80
2018-12-01T05:04:34.741Z,31.25
2018-12-01T05:07:07.816Z,31.53
2018-12-01T05:09:38.662Z,30.90
2018-12-01T05:12:08.915Z,31.63
2018-12-01T05:14:42.868Z,32.60
2018-12-01T05:17:13.467Z,30.77
2018-12-01T05:19:43.965Z,31.70
2018-12-01T05:22:14.776Z,32.40
2018-12-01T05:24:45.251Z,31.03
2018-12-01T05:27:15.847Z,32.93
2018-12-01T05:29:46.579Z,33.60
2018-12-01T05:32:17.117Z,31.07
2018-12-01T05:34:47.737Z,32.20
2018-12-01T05:37:18.804Z,31.73
2018-12-01T05:39:50.321Z,33.90
2018-12-01T05:42:21.481Z,34.27
2018-12-01T05:44:53.242Z,36.00
2018-12-01T05:47:25.008Z,35.43
2018-12-01T05:50:04.242Z,36.83
2018-12-01T05:52:38.723Z,36.00
2018-12-01T05:55:12.714Z,35.77
2018-12-01T05:57:50.153Z,35.70
2018-12-01T06:00:21.613Z,34.90
2018-12-01T06:02:52.862Z,35.98
2018-12-01T06:05:25.028Z,36.28
2018-12-01T06:07:59.686Z,36.57
2018-12-01T06:10:52.868Z,34.53
2018-12-01T06:13:56.226Z,36.93
2018-12-01T06:17:17.726Z,33.97
2018-12-01T06:47:38.100Z,31.65
2018-12-01T06:50:49.884Z,32.20
2018-12-01T06:53:39.225Z,34.13
2018-12-01T06:56:18.659Z,35.40
2018-12-01T06:58:59.635Z,34.43
2018-12-01T07:01:38.709Z,33.85
2018-12-01T07:04:11.026Z,35.30
2018-12-01T07:06:50.514Z,35.63
2018-12-01T07:09:22.698Z,33.88
2018-12-01T07:11:55.524Z,32.97
2018-12-01T07:14:28.090Z,33.10
2018-12-01T07:16:59.597Z,35.13
2018-12-01T07:19:29.763Z,37.50
2018-12-01T07:22:00.388Z,36.73
2018-12-01T07:24:31.260Z,38.00
2018-12-01T07:27:01.423Z,37.20
2018-12-01T07:29:32.055Z,37.83
2018-12-01T07:32:02.484Z,36.40
2018-12-01T07:34:33.557Z,36.88
2018-12-01T07:37:03.685Z,37.17
2018-12-01T07:39:34.172Z,36.50
2018-12-01T07:42:05.264Z,37.37
2018-12-01T07:44:35.449Z,35.53
2018-12-01T07:47:06.069Z,37.70
2018-12-01T07:49:37.197Z,35.93
2018-12-01T07:52:07.364Z,35.20
2018-12-01T07:54:37.499Z,34.87
2018-12-01T07:57:08.532Z,35.40
2018-12-01T07:59:39.240Z,34.78
2018-12-01T08:02:09.436Z,35.20
2018-12-01T08:04:39.588Z,34.35
2018-12-01T08:07:10.545Z,32.80
2018-12-01T08:09:41.453Z,35.20
2018-12-01T08:12:11.647Z,34.17
2018-12-01T08:14:42.471Z,36.50
2018-12-01T08:17:19.505Z,33.67
2018-12-01T08:19:56.648Z,34.43
2018-12-01T08:22:27.641Z,35.80
2018-12-01T08:25:05.248Z,34.50
2018-12-01T08:27:37.759Z,33.60
2018-12-01T08:30:25.308Z,32.53
2018-12-01T08:32:57.583Z,35.63
2018-12-01T08:35:29.217Z,35.17
2018-12-01T08:38:01.726Z,33.47
2018-12-01T08:40:34.401Z,37.10
2018-12-01T08:43:06.030Z,34.98
2018-12-01T08:45:36.179Z,34.50
2018-12-01T08:48:07.712Z,35.73
2018-12-01T08:50:38.241Z,35.90
2018-12-01T08:53:10.919Z,35.63
2018-12-01T08:55:41.937Z,34.80
2018-12-01T08:58:13.457Z,34.80
2018-12-01T09:00:45.897Z,33.42
2018-12-01T09:03:23.369Z,34.55
2018-12-01T09:05:55.856Z,34.30
2018-12-01T09:08:26.000Z,34.43
2018-12-01T09:11:02.765Z,40.37
2018-12-01T09:13:36.641Z,35.47
2018-12-01T09:16:08.855Z,32.50
2018-12-01T09:18:44.147Z,33.17
2018-12-01T09:21:14.908Z,34.03
2018-12-01T09:23:45.540Z,33.15
2018-12-01T09:26:15.915Z,33.60
2018-12-01T09:28:46.839Z,33.00
2018-12-01T09:31:17.876Z,34.50
2018-12-01T09:33:47.986Z,34.80
2018-12-01T09:36:22.003Z,32.87
2018-12-01T09:38:54.947Z,33.03
2018-12-01T09:41:28.017Z,34.87
2018-12-01T09:43:59.893Z,33.77
2018-12-01T09:46:30.997Z,35.23
2018-12-01T09:49:03.996Z,33.13
2018-12-01T09:51:40.889Z,32.47
2018-12-01T09:54:13.946Z,34.37
2018-12-01T09:56:44.619Z,33.60
2018-12-01T09:59:14.920Z,35.10
2018-12-01T10:01:46.191Z,36.43
2018-12-01T10:04:16.293Z,35.20
2018-12-01T10:06:48.959Z,35.97
2018-12-01T10:09:19.987Z,38.73
2018-12-01T10:11:56.672Z,37.80
2018-12-01T10:14:27.316Z,38.17
2018-12-01T10:16:57.781Z,38.40
2018-12-01T10:19:32.078Z,38.37
2018-12-01T10:22:05.103Z,38.80
2018-12-01T10:24:35.127Z,40.23
2018-12-01T10:27:11.971Z,39.80
2018-12-01T10:29:42.250Z,41.60
2018-12-01T10:32:16.284Z,43.17
2018-12-01T10:34:47.136Z,40.00
2018-12-01T10:37:17.653Z,38.83
2018-12-01T10:39:48.054Z,41.27
2018-12-01T10:42:19.025Z,39.97
2018-12-01T10:44:49.893Z,42.20
2018-12-01T10:47:20.231Z,40.98
2018-12-01T10:49:57.167Z,37.83
2018-12-01T10:52:28.289Z,39.17
2018-12-01T10:55:02.101Z,39.10
2018-12-01T10:57:35.238Z,40.67
2018-12-01T11:00:17.200Z,39.27
2018-12-01T11:02:55.686Z,40.30
2018-12-01T11:05:25.619Z,38.63
2018-12-01T11:07:56.514Z,39.80
2018-12-01T11:10:27.313Z,40.33
2018-12-01T11:12:58.025Z,39.60
2018-12-01T11:15:28.352Z,39.53
2018-12-01T11:17:58.989Z,38.17
2018-12-01T11:20:29.540Z,38.70
2018-12-01T11:23:00.189Z,39.63
2018-12-01T11:25:30.363Z,40.20
2018-12-01T11:28:01.435Z,41.73
2018-12-01T11:30:32.101Z,39.80
2018-12-01T11:33:02.508Z,42.27
2018-12-01T11:35:33.212Z,38.97
2018-12-01T11:38:03.915Z,40.77
2018-12-01T11:40:34.465Z,37.70
2018-12-01T11:43:04.649Z,39.67
2018-12-01T11:45:35.617Z,37.83
2018-12-01T11:48:07.386Z,36.87
2018-12-01T11:50:37.891Z,39.50
2018-12-01T11:53:08.257Z,39.73
2018-12-01T11:55:38.740Z,40.57
2018-12-01T11:58:10.081Z,39.00
2018-12-01T12:00:40.171Z,39.08
2018-12-01T12:03:10.820Z,40.43
2018-12-01T12:05:41.625Z,40.47
2018-12-01T12:08:20.587Z,40.07
2018-12-01T12:10:51.887Z,40.47
2018-12-01T12:13:23.083Z,41.28
2018-12-01T12:15:56.037Z,43.50
2018-12-01T12:18:28.950Z,43.13
2018-12-01T12:20:59.768Z,44.23
2018-12-01T12:23:30.769Z,42.73
2018-12-01T12:26:01.788Z,44.50
2018-12-01T12:28:31.998Z,42.97
2018-12-01T12:31:02.445Z,42.80
2018-12-01T12:33:32.989Z,42.27
2018-12-01T12:36:03.530Z,43.53
2018-12-01T12:38:34.157Z,42.33
2018-12-01T12:41:04.861Z,47.27
2018-12-01T12:43:35.328Z,47.20
2018-12-01T12:46:06.003Z,47.97
2018-12-01T12:48:36.663Z,47.88
2018-12-01T12:51:06.926Z,45.27
2018-12-01T12:53:43.602Z,47.33
2018-12-01T12:56:14.798Z,46.80
2018-12-01T12:58:44.907Z,49.40
2018-12-01T13:01:15.895Z,48.20
2018-12-01T13:03:46.847Z,50.90
2018-12-01T13:06:18.268Z,46.93
2018-12-01T13:08:48.807Z,45.53
2018-12-01T13:11:21.949Z,45.70
2018-12-01T13:13:53.008Z,45.30
2018-12-01T13:16:29.477Z,44.60
2018-12-01T13:19:00.036Z,45.63
2018-12-01T13:21:31.143Z,45.87
2018-12-01T13:24:01.349Z,45.73
2018-12-01T13:26:32.226Z,43.37
2018-12-01T13:29:02.732Z,42.47
2018-12-01T13:31:33.194Z,43.40
2018-12-01T13:34:03.794Z,44.60
2018-12-01T13:36:34.030Z,42.90
2018-12-01T13:39:06.815Z,42.10
2018-12-01T13:41:39.115Z,40.12
2018-12-01T13:44:15.089Z,41.80
2018-12-01T13:46:46.034Z,41.23
2018-12-01T13:49:19.031Z,42.13
2018-12-01T13:51:49.931Z,41.70
2018-12-01T13:54:20.000Z,43.47
2018-12-01T13:56:51.109Z,42.00
2018-12-01T13:59:22.209Z,42.23
2018-12-01T14:01:58.129Z,41.70
2018-12-01T14:04:29.089Z,40.87
2018-12-01T14:06:59.959Z,43.20
2018-12-01T14:09:30.092Z,41.70
2018-12-01T14:12:03.936Z,44.77
2018-12-01T14:14:35.126Z,42.57
2018-12-01T14:17:05.405Z,41.60
2018-12-01T14:19:38.972Z,39.50
2018-12-01T14:22:10.225Z,40.87
2018-12-01T14:24:41.031Z,40.57
2018-12-01T14:27:11.787Z,42.30
2018-12-01T14:29:42.296Z,43.20
2018-12-01T14:32:13.188Z,42.80
2018-12-01T14:34:43.304Z,40.10
2018-12-01T14:37:20.075Z,42.95
2018-12-01T14:39:50.223Z,44.40
2018-12-01T14:42:25.386Z,44.88
2018-12-01T14:44:58.505Z,49.40
2018-12-01T14:47:37.499Z,48.25
2018-12-01T14:50:09.810Z,53.65
2018-12-01T14:52:41.920Z,49.77
2018-12-01T14:55:15.908Z,49.60
2018-12-01T14:57:48.519Z,44.30
2018-12-01T15:00:25.561Z,44.07
2018-12-01T15:02:56.516Z,43.48
2018-12-01T15:05:27.102Z,41.33
2018-12-01T15:08:00.213Z,44.77
2018-12-01T15:10:30.882Z,44.27
2018-12-01T15:13:03.282Z,43.13
2018-12-01T15:15:34.533Z,41.30
2018-12-01T15:18:04.664Z,42.40
2018-12-01T15:20:35.492Z,41.33
2018-12-01T15:23:13.365Z,43.48
2018-12-01T15:25:43.473Z,41.63
2018-12-01T15:28:13.588Z,41.37
2018-12-01T15:30:44.451Z,41.77
2018-12-01T15:33:15.742Z,41.97
2018-12-01T15:35:46.818Z,42.10
2018-12-01T15:38:18.541Z,41.90
2018-12-01T15:40:53.026Z,42.77
2018-12-01T15:43:23.125Z,41.80
2018-12-01T15:45:53.588Z,45.87
2018-12-01T15:48:25.715Z,43.03
2018-12-01T15:50:57.582Z,45.50
2018-12-01T15:53:28.599Z,45.03
2018-12-01T15:55:58.803Z,43.92
2018-12-01T15:58:29.753Z,43.52
2018-12-01T16:00:59.863Z,43.90
2018-12-01T16:03:30.623Z,46.30
2018-12-01T16:06:00.914Z,42.90
2018-12-01T16:08:31.716Z,43.20
2018-12-01T16:11:02.034Z,44.90
2018-12-01T16:13:33.108Z,44.80
2018-12-01T16:16:10.157Z,43.83
2018-12-01T16:18:47.719Z,44.93
2018-12-01T16:21:18.949Z,42.67
2018-12-01T16:23:51.961Z,42.07
2018-12-01T16:26:22.371Z,44.03
2018-12-01T16:28:52.807Z,45.30
2018-12-01T16:31:22.920Z,42.98
2018-12-01T16:33:54.051Z,43.63
2018-12-01T16:36:25.658Z,45.60
2018-12-01T16:38:57.888Z,42.95
2018-12-01T16:41:34.444Z,43.27
2018-12-01T16:44:06.332Z,43.20
2018-12-01T16:46:38.779Z,45.57
2018-12-01T16:49:09.868Z,44.38
2018-12-01T16:51:45.909Z,45.80
2018-12-01T16:54:16.930Z,46.80
2018-12-01T16:56:47.937Z,45.90
2018-12-01T16:59:19.919Z,51.23
2018-12-01T17:01:50.080Z,47.90
2018-12-01T17:04:22.529Z,49.50
2018-12-01T17:06:52.846Z,48.93
2018-12-01T17:09:23.061Z,50.27
2018-12-01T17:11:57.845Z,48.47
2018-12-01T17:14:28.983Z,47.70
2018-12-01T17:17:02.084Z,50.93
2018-12-01T17:19:33.108Z,61.73
2018-12-01T17:22:06.579Z,56.00
2018-12-01T17:24:37.103Z,53.93
2018-12-01T17:27:10.050Z,51.73
2018-12-01T17:29:40.225Z,52.33
2018-12-01T17:32:11.117Z,58.03
2018-12-01T17:34:47.836Z,61.73
2018-12-01T17:37:18.271Z,60.92
2018-12-01T17:39:49.062Z,56.13
2018-12-01T17:42:22.223Z,55.63
2018-12-01T17:44:52.572Z,56.97
2018-12-01T17:47:22.777Z,52.62
2018-12-01T17:49:53.158Z,53.48
2018-12-01T17:52:23.337Z,55.93
2018-12-01T17:54:54.200Z,52.78
2018-12-01T17:57:26.181Z,52.13
2018-12-01T18:00:05.137Z,57.85
2018-12-01T18:02:35.313Z,55.55
2018-12-01T18:05:08.496Z,60.27
2018-12-01T18:07:39.201Z,56.90
2018-12-01T18:10:12.899Z,60.50
2018-12-01T18:12:43.972Z,57.50
2018-12-01T18:15:15.736Z,71.03
2018-12-01T18:17:48.396Z,81.17
2018-12-01T18:20:22.871Z,68.87
2018-12-01T18:22:57.776Z,78.80
2018-12-01T18:25:31.211Z,88.87
2018-12-01T18:28:02.312Z,79.60
2018-12-01T18:30:35.940Z,65.40
2018-12-01T18:33:10.276Z,73.57
2018-12-01T18:35:42.471Z,67.07
2018-12-01T18:38:14.461Z,96.07
2018-12-01T18:40:45.527Z,95.77
2018-12-01T18:43:16.046Z,82.80
2018-12-01T18:45:48.316Z,84.40
2018-12-01T18:48:19.543Z,81.20
2018-12-01T18:50:56.328Z,88.03
2018-12-01T18:53:29.537Z,118.23
2018-12-01T18:56:03.094Z,102.03
2018-12-01T18:58:38.089Z,86.67
2018-12-01T19:01:10.834Z,88.15
2018-12-01T19:03:43.487Z,98.10
2018-12-01T19:06:16.610Z,86.93
2018-12-01T19:08:47.697Z,102.50
2018-12-01T19:11:18.587Z,64.42
2018-12-01T19:13:51.526Z,69.67
2018-12-01T19:16:25.543Z,82.80
2018-12-01T19:18:55.920Z,56.37
2018-12-01T19:21:26.865Z,65.80
2018-12-01T19:24:00.393Z,62.57
2018-12-01T19:26:31.432Z,75.57
2018-12-01T19:29:03.861Z,60.67
2018-12-01T19:31:34.982Z,72.50
2018-12-01T19:34:06.336Z,69.17
2018-12-01T19:36:38.739Z,67.87
2018-12-01T19:39:13.130Z,66.80
2018-12-01T19:41:43.655Z,63.10
2018-12-01T19:44:15.154Z,68.45
2018-12-01T19:46:47.709Z,60.53
2018-12-01T19:49:20.717Z,60.07
2018-12-01T19:51:57.771Z,55.30
2018-12-01T19:54:29.916Z,51.83
2018-12-01T19:57:02.603Z,52.83
2018-12-01T19:59:33.530Z,56.33
2018-12-01T20:02:04.662Z,54.18
2018-12-01T20:04:37.978Z,55.80
2018-12-01T20:07:11.010Z,59.60
2018-12-01T20:09:46.523Z,54.57
2018-12-01T20:12:17.994Z,57.43
2018-12-01T20:14:50.285Z,78.97
2018-12-01T20:17:21.094Z,75.60
2018-12-01T20:19:52.312Z,57.47
2018-12-01T20:22:22.841Z,65.67
2018-12-01T20:24:53.364Z,75.10
2018-12-01T20:27:24.812Z,89.52
2018-12-01T20:30:01.508Z,84.67
2018-12-01T20:32:34.406Z,77.07
2018-12-01T20:35:06.114Z,72.93
2018-12-01T20:37:37.983Z,66.20
2018-12-01T20:40:12.483Z,71.30
2018-12-01T20:42:42.835Z,83.97
2018-12-01T20:45:13.389Z,87.40
2018-12-01T20:47:43.602Z,70.08
2018-12-01T20:50:16.310Z,101.13
2018-12-01T20:52:47.882Z,85.97
2018-12-01T20:55:27.676Z,98.50
2018-12-01T20:57:59.773Z,93.93
2018-12-01T21:00:31.468Z,95.30
2018-12-01T21:03:05.664Z,91.67
2018-12-01T21:05:35.938Z,83.10
2018-12-01T21:08:06.840Z,81.27
2018-12-01T21:10:39.368Z,78.10
2018-12-01T21:13:13.881Z,64.03
2018-12-01T21:15:47.692Z,89.73
2018-12-01T21:18:17.892Z,80.65
2018-12-01T21:20:49.020Z,69.60
2018-12-01T21:23:20.020Z,90.35
2018-12-01T21:25:53.085Z,139.57
2018-12-01T21:28:23.205Z,62.38
2018-12-01T21:30:54.095Z,81.67
2018-12-01T21:33:29.179Z,81.53
2018-12-01T21:36:01.160Z,60.90
2018-12-01T21:38:31.241Z,55.67
2018-12-01T21:41:02.130Z,49.93
2018-12-01T21:43:40.950Z,66.17
2018-12-01T21:46:15.032Z,62.27
2018-12-01T21:48:50.411Z,63.37
2018-12-01T21:51:26.200Z,69.25
2018-12-01T21:53:58.282Z,62.13
2018-12-01T21:56:29.096Z,70.80
2018-12-01T21:58:59.264Z,56.20
2018-12-01T22:01:30.068Z,69.67
2018-12-01T22:04:00.178Z,72.90
2018-12-01T22:06:31.406Z,62.73
2018-12-01T22:09:02.158Z,73.72
2018-12-01T22:11:32.462Z,65.17
2018-12-01T22:14:02.995Z,70.73
2018-12-01T22:16:33.624Z,57.90
2018-12-01T22:19:04.289Z,71.07
2018-12-01T22:21:34.999Z,72.37
2018-12-01T22:24:05.743Z,65.83
2018-12-01T22:26:39.398Z,69.97
2018-12-01T22:29:10.369Z,78.10
2018-12-01T22:31:43.543Z,84.35
2018-12-01T22:34:14.364Z,73.00
2018-12-01T22:36:45.359Z,86.67
2018-12-01T22:39:16.458Z,63.40
2018-12-01T22:41:49.653Z,96.13
2018-12-01T22:44:20.516Z,73.13
2018-12-01T22:46:53.533Z,64.97
2018-12-01T22:49:23.689Z,62.38
2018-12-01T22:51:54.464Z,56.03
2018-12-01T22:54:28.183Z,68.40
2018-12-01T22:56:58.331Z,59.97
2018-12-01T22:59:29.175Z,59.17
2018-12-01T23:01:59.676Z,57.93
2018-12-01T23:04:30.062Z,63.15
2018-12-01T23:07:00.750Z,61.88
2018-12-01T23:09:31.238Z,63.30
2018-12-01T23:12:01.469Z,62.03
2018-12-01T23:14:32.315Z,56.30
2018-12-01T23:17:02.552Z,56.90
2018-12-01T23:19:32.641Z,59.13
2018-12-01T23:22:09.458Z,53.87
2018-12-01T23:24:40.705Z,53.20
2018-12-01T23:27:11.676Z,54.08
2018-12-01T23:29:41.822Z,50.77
2018-12-01T23:32:14.693Z,45.55
2018-12-01T23:34:45.499Z,47.48
2018-12-01T23:37:16.596Z,52.03
2018-12-01T23:39:47.421Z,50.87
2018-12-01T23:42:17.655Z,46.33
2018-12-01T23:44:51.448Z,49.37
2018-12-01T23:47:21.775Z,48.73
2018-12-01T23:49:52.607Z,54.70
2018-12-01T23:52:22.848Z,52.47
2018-12-01T23:54:53.627Z,56.07
2018-12-01T23:57:24.030Z,48.92
2018-12-01T23:59:55.783Z,47.60
